sensor_id;sensor_type;location;lat;lon;timestamp;P1;durP1;ratioP1;P2;durP2;ratioP2
34317;SDS011;20582;52.196;20.952;2023-02-28T00:01:12;26.23;;;10.80;;
34317;SDS011;20582;52.196;20.952;2023-02-28T00:03:38;22.30;;;10.63;;
34317;SDS011;20582;52.196;20.952;2023-02-28T00:06:04;22.60;;;10.85;;
34317;SDS011;20582;52.196;20.952;2023-02-28T00:08:30;23.45;;;11.50;;
34317;SDS011;20582;52.196;20.952;2023-02-28T00:11:00;25.00;;;10.43;;
34317;SDS011;20582;52.196;20.952;2023-02-28T00:13:26;18.50;;;9.82;;
34317;SDS011;20582;52.196;20.952;2023-02-28T00:16:05;22.83;;;11.98;;
34317;SDS011;20582;52.196;20.952;2023-02-28T00:18:32;20.40;;;10.35;;
34317;SDS011;20582;52.196;20.952;2023-02-28T00:20:58;19.55;;;10.07;;
34317;SDS011;20582;52.196;20.952;2023-02-28T00:23:25;21.27;;;10.70;;
34317;SDS011;20582;52.196;20.952;2023-02-28T00:25:51;21.83;;;10.35;;
34317;SDS011;20582;52.196;20.952;2023-02-28T00:28:17;22.38;;;11.32;;
34317;SDS011;20582;52.196;20.952;2023-02-28T00:30:43;21.08;;;10.48;;
34317;SDS011;20582;52.196;20.952;2023-02-28T00:33:09;22.15;;;11.73;;
34317;SDS011;20582;52.196;20.952;2023-02-28T00:35:35;22.90;;;11.00;;
34317;SDS011;20582;52.196;20.952;2023-02-28T00:38:01;25.02;;;10.82;;
34317;SDS011;20582;52.196;20.952;2023-02-28T00:40:27;23.55;;;12.07;;
34317;SDS011;20582;52.196;20.952;2023-02-28T00:42:53;23.02;;;11.43;;
34317;SDS011;20582;52.196;20.952;2023-02-28T00:45:19;21.52;;;10.35;;
34317;SDS011;20582;52.196;20.952;2023-02-28T00:47:45;23.80;;;11.60;;
34317;SDS011;20582;52.196;20.952;2023-02-28T00:50:14;23.20;;;11.02;;
34317;SDS011;20582;52.196;20.952;2023-02-28T00:52:40;19.42;;;10.73;;
34317;SDS011;20582;52.196;20.952;2023-02-28T00:55:06;23.05;;;12.15;;
34317;SDS011;20582;52.196;20.952;2023-02-28T00:57:32;23.60;;;11.38;;
34317;SDS011;20582;52.196;20.952;2023-02-28T00:59:58;23.95;;;11.38;;
34317;SDS011;20582;52.196;20.952;2023-02-28T01:02:24;22.80;;;11.00;;
34317;SDS011;20582;52.196;20.952;2023-02-28T01:04:50;20.48;;;10.40;;
34317;SDS011;20582;52.196;20.952;2023-02-28T01:07:16;22.35;;;11.25;;
34317;SDS011;20582;52.196;20.952;2023-02-28T01:09:42;23.30;;;10.80;;
34317;SDS011;20582;52.196;20.952;2023-02-28T01:12:09;22.13;;;10.82;;
34317;SDS011;20582;52.196;20.952;2023-02-28T01:14:35;21.35;;;9.95;;
34317;SDS011;20582;52.196;20.952;2023-02-28T01:17:01;23.17;;;10.90;;
34317;SDS011;20582;52.196;20.952;2023-02-28T01:19:27;23.75;;;11.00;;
34317;SDS011;20582;52.196;20.952;2023-02-28T01:21:53;23.98;;;11.70;;
34317;SDS011;20582;52.196;20.952;2023-02-28T01:24:19;23.90;;;11.48;;
34317;SDS011;20582;52.196;20.952;2023-02-28T01:26:45;20.85;;;10.45;;
34317;SDS011;20582;52.196;20.952;2023-02-28T01:29:11;25.00;;;11.15;;
34317;SDS011;20582;52.196;20.952;2023-02-28T01:31:37;23.35;;;11.15;;
34317;SDS011;20582;52.196;20.952;2023-02-28T01:34:03;23.95;;;11.82;;
34317;SDS011;20582;52.196;20.952;2023-02-28T01:36:29;24.17;;;12.32;;
34317;SDS011;20582;52.196;20.952;2023-02-28T01:38:55;23.73;;;11.60;;
34317;SDS011;20582;52.196;20.952;2023-02-28T01:41:23;23.42;;;12.40;;
34317;SDS011;20582;52.196;20.952;2023-02-28T01:43:52;24.80;;;12.13;;
34317;SDS011;20582;52.196;20.952;2023-02-28T01:46:19;21.02;;;10.77;;
34317;SDS011;20582;52.196;20.952;2023-02-28T01:48:46;23.08;;;11.15;;
34317;SDS011;20582;52.196;20.952;2023-02-28T01:51:58;23.70;;;11.68;;
34317;SDS011;20582;52.196;20.952;2023-02-28T01:54:02;25.52;;;11.73;;
34317;SDS011;20582;52.196;20.952;2023-02-28T01:56:29;21.40;;;11.15;;
34317;SDS011;20582;52.196;20.952;2023-02-28T01:58:56;23.08;;;11.75;;
34317;SDS011;20582;52.196;20.952;2023-02-28T02:01:22;22.80;;;10.25;;
34317;SDS011;20582;52.196;20.952;2023-02-28T02:03:49;25.20;;;11.35;;
34317;SDS011;20582;52.196;20.952;2023-02-28T02:06:30;22.50;;;11.63;;
34317;SDS011;20582;52.196;20.952;2023-02-28T02:08:56;24.52;;;11.77;;
34317;SDS011;20582;52.196;20.952;2023-02-28T02:11:22;24.27;;;11.48;;
34317;SDS011;20582;52.196;20.952;2023-02-28T02:18:53;24.65;;;11.30;;
34317;SDS011;20582;52.196;20.952;2023-02-28T02:23:58;27.25;;;12.50;;
34317;SDS011;20582;52.196;20.952;2023-02-28T02:31:45;26.25;;;11.48;;
34317;SDS011;20582;52.196;20.952;2023-02-28T02:37:02;25.25;;;12.48;;
34317;SDS011;20582;52.196;20.952;2023-02-28T02:39:47;23.80;;;11.25;;
34317;SDS011;20582;52.196;20.952;2023-02-28T02:42:16;24.63;;;10.93;;
34317;SDS011;20582;52.196;20.952;2023-02-28T02:44:46;31.33;;;12.05;;
34317;SDS011;20582;52.196;20.952;2023-02-28T02:47:17;27.70;;;12.10;;
34317;SDS011;20582;52.196;20.952;2023-02-28T02:49:46;23.23;;;10.88;;
34317;SDS011;20582;52.196;20.952;2023-02-28T02:52:14;24.23;;;11.82;;
34317;SDS011;20582;52.196;20.952;2023-02-28T02:54:41;26.17;;;11.57;;
34317;SDS011;20582;52.196;20.952;2023-02-28T02:57:17;24.98;;;12.15;;
34317;SDS011;20582;52.196;20.952;2023-02-28T02:59:43;24.17;;;12.40;;
34317;SDS011;20582;52.196;20.952;2023-02-28T03:02:11;22.45;;;11.82;;
34317;SDS011;20582;52.196;20.952;2023-02-28T03:04:53;25.15;;;12.40;;
34317;SDS011;20582;52.196;20.952;2023-02-28T03:07:25;22.63;;;11.20;;
34317;SDS011;20582;52.196;20.952;2023-02-28T03:09:52;22.90;;;10.70;;
34317;SDS011;20582;52.196;20.952;2023-02-28T03:12:18;24.58;;;11.45;;
34317;SDS011;20582;52.196;20.952;2023-02-28T03:17:21;22.38;;;10.40;;
34317;SDS011;20582;52.196;20.952;2023-02-28T03:19:55;24.73;;;12.40;;
34317;SDS011;20582;52.196;20.952;2023-02-28T03:25:13;27.23;;;11.05;;
34317;SDS011;20582;52.196;20.952;2023-02-28T03:33:14;22.55;;;10.25;;
34317;SDS011;20582;52.196;20.952;2023-02-28T03:35:43;23.55;;;10.55;;
34317;SDS011;20582;52.196;20.952;2023-02-28T03:38:13;24.42;;;10.57;;
34317;SDS011;20582;52.196;20.952;2023-02-28T03:40:42;21.42;;;10.95;;
34317;SDS011;20582;52.196;20.952;2023-02-28T03:43:12;20.10;;;10.85;;
34317;SDS011;20582;52.196;20.952;2023-02-28T03:45:39;23.85;;;10.00;;
34317;SDS011;20582;52.196;20.952;2023-02-28T03:48:27;21.50;;;11.23;;
34317;SDS011;20582;52.196;20.952;2023-02-28T03:50:53;22.25;;;10.88;;
34317;SDS011;20582;52.196;20.952;2023-02-28T03:55:54;23.75;;;11.48;;
34317;SDS011;20582;52.196;20.952;2023-02-28T03:58:26;24.35;;;13.50;;
34317;SDS011;20582;52.196;20.952;2023-02-28T04:00:57;22.05;;;12.45;;
34317;SDS011;20582;52.196;20.952;2023-02-28T04:03:24;23.98;;;11.82;;
34317;SDS011;20582;52.196;20.952;2023-02-28T04:05:52;27.95;;;12.23;;
34317;SDS011;20582;52.196;20.952;2023-02-28T04:08:19;28.95;;;13.27;;
34317;SDS011;20582;52.196;20.952;2023-02-28T04:10:46;24.17;;;11.80;;
34317;SDS011;20582;52.196;20.952;2023-02-28T04:13:14;31.90;;;14.05;;
34317;SDS011;20582;52.196;20.952;2023-02-28T04:15:40;34.45;;;17.17;;
34317;SDS011;20582;52.196;20.952;2023-02-28T04:18:06;30.50;;;14.48;;
34317;SDS011;20582;52.196;20.952;2023-02-28T04:20:32;32.17;;;13.75;;
34317;SDS011;20582;52.196;20.952;2023-02-28T04:22:58;29.25;;;14.85;;
34317;SDS011;20582;52.196;20.952;2023-02-28T04:25:24;36.50;;;14.85;;
34317;SDS011;20582;52.196;20.952;2023-02-28T04:27:49;37.05;;;16.42;;
34317;SDS011;20582;52.196;20.952;2023-02-28T04:30:16;33.97;;;16.85;;
34317;SDS011;20582;52.196;20.952;2023-02-28T04:32:42;27.50;;;13.98;;
34317;SDS011;20582;52.196;20.952;2023-02-28T04:35:08;22.75;;;11.85;;
34317;SDS011;20582;52.196;20.952;2023-02-28T04:37:34;26.67;;;13.18;;
34317;SDS011;20582;52.196;20.952;2023-02-28T04:40:01;30.45;;;14.55;;
34317;SDS011;20582;52.196;20.952;2023-02-28T04:42:27;28.00;;;13.93;;
34317;SDS011;20582;52.196;20.952;2023-02-28T04:45:00;29.85;;;14.27;;
34317;SDS011;20582;52.196;20.952;2023-02-28T04:47:26;29.52;;;15.18;;
34317;SDS011;20582;52.196;20.952;2023-02-28T04:49:52;32.22;;;14.23;;
34317;SDS011;20582;52.196;20.952;2023-02-28T04:52:18;28.27;;;13.95;;
34317;SDS011;20582;52.196;20.952;2023-02-28T04:54:44;31.02;;;14.80;;
34317;SDS011;20582;52.196;20.952;2023-02-28T04:57:10;28.55;;;12.75;;
34317;SDS011;20582;52.196;20.952;2023-02-28T04:59:36;26.50;;;12.70;;
34317;SDS011;20582;52.196;20.952;2023-02-28T05:02:02;29.08;;;13.23;;
34317;SDS011;20582;52.196;20.952;2023-02-28T05:04:31;31.55;;;13.00;;
34317;SDS011;20582;52.196;20.952;2023-02-28T05:06:59;24.20;;;11.75;;
34317;SDS011;20582;52.196;20.952;2023-02-28T05:09:25;26.08;;;12.07;;
34317;SDS011;20582;52.196;20.952;2023-02-28T05:11:51;29.98;;;13.82;;
34317;SDS011;20582;52.196;20.952;2023-02-28T05:14:17;32.67;;;13.38;;
34317;SDS011;20582;52.196;20.952;2023-02-28T05:16:43;24.98;;;12.18;;
34317;SDS011;20582;52.196;20.952;2023-02-28T05:19:09;26.80;;;12.75;;
34317;SDS011;20582;52.196;20.952;2023-02-28T05:21:35;25.88;;;12.93;;
34317;SDS011;20582;52.196;20.952;2023-02-28T05:24:05;27.95;;;12.80;;
34317;SDS011;20582;52.196;20.952;2023-02-28T05:26:36;29.25;;;14.05;;
34317;SDS011;20582;52.196;20.952;2023-02-28T05:29:02;28.08;;;12.75;;
34317;SDS011;20582;52.196;20.952;2023-02-28T05:31:28;27.80;;;12.95;;
34317;SDS011;20582;52.196;20.952;2023-02-28T05:33:54;34.08;;;13.80;;
34317;SDS011;20582;52.196;20.952;2023-02-28T05:36:20;29.77;;;13.85;;
34317;SDS011;20582;52.196;20.952;2023-02-28T05:38:47;24.42;;;12.13;;
34317;SDS011;20582;52.196;20.952;2023-02-28T05:41:13;31.25;;;14.00;;
34317;SDS011;20582;52.196;20.952;2023-02-28T05:43:39;27.73;;;13.65;;
34317;SDS011;20582;52.196;20.952;2023-02-28T05:46:05;36.03;;;14.60;;
34317;SDS011;20582;52.196;20.952;2023-02-28T05:48:32;26.15;;;12.38;;
34317;SDS011;20582;52.196;20.952;2023-02-28T05:50:59;28.98;;;11.93;;
34317;SDS011;20582;52.196;20.952;2023-02-28T05:53:25;26.23;;;12.90;;
34317;SDS011;20582;52.196;20.952;2023-02-28T05:55:51;26.73;;;12.65;;
34317;SDS011;20582;52.196;20.952;2023-02-28T05:58:17;31.52;;;13.50;;
34317;SDS011;20582;52.196;20.952;2023-02-28T06:00:43;26.42;;;13.07;;
34317;SDS011;20582;52.196;20.952;2023-02-28T06:03:10;32.13;;;14.20;;
34317;SDS011;20582;52.196;20.952;2023-02-28T06:05:36;30.60;;;15.65;;
34317;SDS011;20582;52.196;20.952;2023-02-28T06:08:03;32.25;;;15.07;;
34317;SDS011;20582;52.196;20.952;2023-02-28T06:10:31;29.08;;;14.02;;
34317;SDS011;20582;52.196;20.952;2023-02-28T06:12:59;30.90;;;13.70;;
34317;SDS011;20582;52.196;20.952;2023-02-28T06:15:27;36.43;;;16.13;;
34317;SDS011;20582;52.196;20.952;2023-02-28T06:17:53;34.97;;;15.52;;
34317;SDS011;20582;52.196;20.952;2023-02-28T06:20:21;24.23;;;12.52;;
34317;SDS011;20582;52.196;20.952;2023-02-28T06:22:48;29.15;;;13.63;;
34317;SDS011;20582;52.196;20.952;2023-02-28T06:25:15;21.40;;;10.10;;
34317;SDS011;20582;52.196;20.952;2023-02-28T06:27:41;20.83;;;10.52;;
34317;SDS011;20582;52.196;20.952;2023-02-28T06:30:08;22.33;;;10.63;;
34317;SDS011;20582;52.196;20.952;2023-02-28T06:32:34;19.15;;;9.60;;
34317;SDS011;20582;52.196;20.952;2023-02-28T06:35:01;21.40;;;8.82;;
34317;SDS011;20582;52.196;20.952;2023-02-28T06:37:27;23.25;;;8.93;;
34317;SDS011;20582;52.196;20.952;2023-02-28T06:39:53;23.08;;;9.65;;
34317;SDS011;20582;52.196;20.952;2023-02-28T06:42:23;22.98;;;9.25;;
34317;SDS011;20582;52.196;20.952;2023-02-28T06:44:53;18.60;;;9.50;;
34317;SDS011;20582;52.196;20.952;2023-02-28T06:47:19;18.05;;;9.80;;
34317;SDS011;20582;52.196;20.952;2023-02-28T06:49:45;17.80;;;9.15;;
34317;SDS011;20582;52.196;20.952;2023-02-28T06:52:11;19.65;;;9.82;;
34317;SDS011;20582;52.196;20.952;2023-02-28T06:54:37;22.13;;;9.15;;
34317;SDS011;20582;52.196;20.952;2023-02-28T06:57:03;18.35;;;8.40;;
34317;SDS011;20582;52.196;20.952;2023-02-28T06:59:29;19.65;;;7.95;;
34317;SDS011;20582;52.196;20.952;2023-02-28T07:01:55;14.45;;;7.88;;
34317;SDS011;20582;52.196;20.952;2023-02-28T07:04:21;18.23;;;8.30;;
34317;SDS011;20582;52.196;20.952;2023-02-28T07:06:47;14.85;;;8.07;;
34317;SDS011;20582;52.196;20.952;2023-02-28T07:09:13;16.27;;;8.60;;
34317;SDS011;20582;52.196;20.952;2023-02-28T07:11:40;17.02;;;8.38;;
34317;SDS011;20582;52.196;20.952;2023-02-28T07:14:07;22.73;;;8.77;;
34317;SDS011;20582;52.196;20.952;2023-02-28T07:16:33;18.40;;;8.50;;
34317;SDS011;20582;52.196;20.952;2023-02-28T07:18:59;15.90;;;7.78;;
34317;SDS011;20582;52.196;20.952;2023-02-28T07:21:25;16.88;;;8.35;;
34317;SDS011;20582;52.196;20.952;2023-02-28T07:23:51;15.93;;;7.32;;
34317;SDS011;20582;52.196;20.952;2023-02-28T07:26:18;16.98;;;9.07;;
34317;SDS011;20582;52.196;20.952;2023-02-28T07:28:45;16.38;;;9.60;;
34317;SDS011;20582;52.196;20.952;2023-02-28T07:31:11;18.83;;;10.02;;
34317;SDS011;20582;52.196;20.952;2023-02-28T07:33:38;16.75;;;8.52;;
34317;SDS011;20582;52.196;20.952;2023-02-28T07:36:06;14.40;;;7.55;;
34317;SDS011;20582;52.196;20.952;2023-02-28T07:38:35;16.42;;;8.80;;
34317;SDS011;20582;52.196;20.952;2023-02-28T07:41:02;14.05;;;7.53;;
34317;SDS011;20582;52.196;20.952;2023-02-28T07:43:33;13.93;;;7.50;;
34317;SDS011;20582;52.196;20.952;2023-02-28T07:46:09;13.90;;;6.88;;
34317;SDS011;20582;52.196;20.952;2023-02-28T07:48:36;13.43;;;6.60;;
34317;SDS011;20582;52.196;20.952;2023-02-28T07:51:02;14.07;;;7.05;;
34317;SDS011;20582;52.196;20.952;2023-02-28T07:53:28;12.48;;;5.70;;
34317;SDS011;20582;52.196;20.952;2023-02-28T07:55:58;15.95;;;8.15;;
34317;SDS011;20582;52.196;20.952;2023-02-28T07:58:26;15.02;;;7.82;;
34317;SDS011;20582;52.196;20.952;2023-02-28T08:00:52;15.70;;;7.07;;
34317;SDS011;20582;52.196;20.952;2023-02-28T08:03:19;15.75;;;7.80;;
34317;SDS011;20582;52.196;20.952;2023-02-28T08:05:45;14.23;;;7.53;;
34317;SDS011;20582;52.196;20.952;2023-02-28T08:08:12;15.38;;;8.43;;
34317;SDS011;20582;52.196;20.952;2023-02-28T08:10:38;19.25;;;9.07;;
34317;SDS011;20582;52.196;20.952;2023-02-28T08:13:04;18.30;;;8.88;;
34317;SDS011;20582;52.196;20.952;2023-02-28T08:15:30;14.88;;;8.43;;
34317;SDS011;20582;52.196;20.952;2023-02-28T08:17:56;17.63;;;8.52;;
34317;SDS011;20582;52.196;20.952;2023-02-28T08:20:23;15.38;;;8.65;;
34317;SDS011;20582;52.196;20.952;2023-02-28T08:22:48;16.50;;;8.65;;
34317;SDS011;20582;52.196;20.952;2023-02-28T08:25:14;13.93;;;7.85;;
34317;SDS011;20582;52.196;20.952;2023-02-28T08:27:40;14.05;;;7.78;;
34317;SDS011;20582;52.196;20.952;2023-02-28T08:30:07;15.13;;;7.57;;
34317;SDS011;20582;52.196;20.952;2023-02-28T08:32:33;17.35;;;8.35;;
34317;SDS011;20582;52.196;20.952;2023-02-28T08:34:59;17.27;;;8.77;;
34317;SDS011;20582;52.196;20.952;2023-02-28T08:37:25;16.08;;;8.70;;
34317;SDS011;20582;52.196;20.952;2023-02-28T08:39:51;16.00;;;8.48;;
34317;SDS011;20582;52.196;20.952;2023-02-28T08:42:17;13.23;;;7.88;;
34317;SDS011;20582;52.196;20.952;2023-02-28T08:44:43;15.23;;;8.23;;
34317;SDS011;20582;52.196;20.952;2023-02-28T08:47:09;14.35;;;8.18;;
34317;SDS011;20582;52.196;20.952;2023-02-28T08:49:36;12.48;;;7.55;;
34317;SDS011;20582;52.196;20.952;2023-02-28T08:52:02;14.70;;;8.60;;
34317;SDS011;20582;52.196;20.952;2023-02-28T08:54:28;15.65;;;8.70;;
34317;SDS011;20582;52.196;20.952;2023-02-28T08:56:56;12.75;;;8.10;;
34317;SDS011;20582;52.196;20.952;2023-02-28T08:59:22;16.42;;;8.15;;
34317;SDS011;20582;52.196;20.952;2023-02-28T09:01:48;12.02;;;8.10;;
34317;SDS011;20582;52.196;20.952;2023-02-28T09:04:14;15.20;;;8.05;;
34317;SDS011;20582;52.196;20.952;2023-02-28T09:06:40;12.60;;;8.23;;
34317;SDS011;20582;52.196;20.952;2023-02-28T09:09:06;13.68;;;8.45;;
34317;SDS011;20582;52.196;20.952;2023-02-28T09:11:32;15.82;;;9.48;;
34317;SDS011;20582;52.196;20.952;2023-02-28T09:13:59;15.48;;;8.70;;
34317;SDS011;20582;52.196;20.952;2023-02-28T09:16:25;12.73;;;8.68;;
34317;SDS011;20582;52.196;20.952;2023-02-28T09:18:52;13.55;;;8.77;;
34317;SDS011;20582;52.196;20.952;2023-02-28T09:21:18;12.27;;;8.88;;
34317;SDS011;20582;52.196;20.952;2023-02-28T09:23:45;15.00;;;9.15;;
34317;SDS011;20582;52.196;20.952;2023-02-28T09:26:15;12.55;;;8.90;;
34317;SDS011;20582;52.196;20.952;2023-02-28T09:28:41;17.25;;;9.27;;
34317;SDS011;20582;52.196;20.952;2023-02-28T09:31:10;15.85;;;10.45;;
34317;SDS011;20582;52.196;20.952;2023-02-28T09:33:37;14.50;;;9.02;;
34317;SDS011;20582;52.196;20.952;2023-02-28T09:36:03;15.75;;;9.32;;
34317;SDS011;20582;52.196;20.952;2023-02-28T09:38:29;16.70;;;9.38;;
34317;SDS011;20582;52.196;20.952;2023-02-28T09:40:56;13.48;;;9.82;;
34317;SDS011;20582;52.196;20.952;2023-02-28T09:43:24;15.95;;;10.02;;
34317;SDS011;20582;52.196;20.952;2023-02-28T09:46:01;15.73;;;9.43;;
34317;SDS011;20582;52.196;20.952;2023-02-28T09:48:29;17.85;;;10.18;;
34317;SDS011;20582;52.196;20.952;2023-02-28T09:51:02;15.75;;;9.98;;
34317;SDS011;20582;52.196;20.952;2023-02-28T09:53:30;14.88;;;9.88;;
34317;SDS011;20582;52.196;20.952;2023-02-28T09:55:59;15.23;;;9.50;;
34317;SDS011;20582;52.196;20.952;2023-02-28T10:00:57;16.05;;;10.15;;
34317;SDS011;20582;52.196;20.952;2023-02-28T10:03:35;16.45;;;9.35;;
34317;SDS011;20582;52.196;20.952;2023-02-28T10:11:08;15.30;;;9.85;;
34317;SDS011;20582;52.196;20.952;2023-02-28T10:13:56;14.18;;;9.77;;
34317;SDS011;20582;52.196;20.952;2023-02-28T10:16:31;14.20;;;10.15;;
34317;SDS011;20582;52.196;20.952;2023-02-28T10:21:41;20.75;;;10.35;;
34317;SDS011;20582;52.196;20.952;2023-02-28T10:24:22;16.27;;;10.63;;
34317;SDS011;20582;52.196;20.952;2023-02-28T10:26:52;15.20;;;10.40;;
34317;SDS011;20582;52.196;20.952;2023-02-28T10:29:23;17.20;;;10.70;;
34317;SDS011;20582;52.196;20.952;2023-02-28T10:31:49;14.63;;;10.60;;
34317;SDS011;20582;52.196;20.952;2023-02-28T10:34:15;16.77;;;10.82;;
34317;SDS011;20582;52.196;20.952;2023-02-28T10:36:41;17.98;;;10.50;;
34317;SDS011;20582;52.196;20.952;2023-02-28T10:41:52;18.42;;;11.13;;
34317;SDS011;20582;52.196;20.952;2023-02-28T10:44:21;17.33;;;11.30;;
34317;SDS011;20582;52.196;20.952;2023-02-28T10:46:48;17.92;;;11.30;;
34317;SDS011;20582;52.196;20.952;2023-02-28T10:49:17;18.05;;;11.43;;
34317;SDS011;20582;52.196;20.952;2023-02-28T10:51:43;20.17;;;11.60;;
34317;SDS011;20582;52.196;20.952;2023-02-28T10:54:16;20.25;;;10.88;;
34317;SDS011;20582;52.196;20.952;2023-02-28T10:56:42;19.90;;;11.68;;
34317;SDS011;20582;52.196;20.952;2023-02-28T11:01:41;16.05;;;10.80;;
34317;SDS011;20582;52.196;20.952;2023-02-28T11:04:18;18.42;;;11.23;;
34317;SDS011;20582;52.196;20.952;2023-02-28T11:06:46;16.70;;;10.95;;
34317;SDS011;20582;52.196;20.952;2023-02-28T11:09:18;21.10;;;11.32;;
34317;SDS011;20582;52.196;20.952;2023-02-28T11:11:45;24.75;;;12.57;;
34317;SDS011;20582;52.196;20.952;2023-02-28T11:14:19;17.33;;;11.77;;
34317;SDS011;20582;52.196;20.952;2023-02-28T11:16:46;18.45;;;11.27;;
34317;SDS011;20582;52.196;20.952;2023-02-28T11:19:17;16.45;;;11.02;;
34317;SDS011;20582;52.196;20.952;2023-02-28T11:21:48;19.38;;;12.02;;
34317;SDS011;20582;52.196;20.952;2023-02-28T11:26:48;17.52;;;10.52;;
34317;SDS011;20582;52.196;20.952;2023-02-28T11:31:54;18.08;;;12.10;;
34317;SDS011;20582;52.196;20.952;2023-02-28T11:34:26;19.83;;;12.27;;
34317;SDS011;20582;52.196;20.952;2023-02-28T11:36:53;19.85;;;11.50;;
34317;SDS011;20582;52.196;20.952;2023-02-28T11:39:20;19.88;;;11.50;;
34317;SDS011;20582;52.196;20.952;2023-02-28T11:47:15;15.98;;;10.48;;
34317;SDS011;20582;52.196;20.952;2023-02-28T12:00:03;16.08;;;10.77;;
34317;SDS011;20582;52.196;20.952;2023-02-28T12:02:45;16.95;;;10.65;;
34317;SDS011;20582;52.196;20.952;2023-02-28T12:05:18;18.65;;;10.90;;
34317;SDS011;20582;52.196;20.952;2023-02-28T12:10:24;14.63;;;9.75;;
34317;SDS011;20582;52.196;20.952;2023-02-28T12:13:00;15.13;;;9.98;;
34317;SDS011;20582;52.196;20.952;2023-02-28T12:15:36;15.82;;;9.90;;
34317;SDS011;20582;52.196;20.952;2023-02-28T12:31:49;14.75;;;10.57;;
34317;SDS011;20582;52.196;20.952;2023-02-28T12:34:22;15.23;;;10.40;;
34317;SDS011;20582;52.196;20.952;2023-02-28T12:36:51;14.80;;;10.32;;
34317;SDS011;20582;52.196;20.952;2023-02-28T12:39:25;16.25;;;10.13;;
34317;SDS011;20582;52.196;20.952;2023-02-28T12:44:52;18.48;;;10.80;;
34317;SDS011;20582;52.196;20.952;2023-02-28T12:47:19;15.57;;;11.20;;
34317;SDS011;20582;52.196;20.952;2023-02-28T12:49:46;15.30;;;11.00;;
34317;SDS011;20582;52.196;20.952;2023-02-28T12:52:16;14.70;;;11.23;;
34317;SDS011;20582;52.196;20.952;2023-02-28T12:59:57;18.17;;;10.95;;
34317;SDS011;20582;52.196;20.952;2023-02-28T13:10:44;18.35;;;11.02;;
34317;SDS011;20582;52.196;20.952;2023-02-28T13:13:18;17.55;;;11.05;;
34317;SDS011;20582;52.196;20.952;2023-02-28T13:18:37;14.75;;;11.13;;
34317;SDS011;20582;52.196;20.952;2023-02-28T13:21:07;16.08;;;10.38;;
34317;SDS011;20582;52.196;20.952;2023-02-28T13:29:00;19.08;;;11.80;;
34317;SDS011;20582;52.196;20.952;2023-02-28T13:31:26;18.07;;;11.50;;
34317;SDS011;20582;52.196;20.952;2023-02-28T13:38:49;16.98;;;11.75;;
34317;SDS011;20582;52.196;20.952;2023-02-28T13:44:04;19.90;;;11.80;;
34317;SDS011;20582;52.196;20.952;2023-02-28T13:49:25;19.42;;;11.35;;
34317;SDS011;20582;52.196;20.952;2023-02-28T14:00:05;18.10;;;12.90;;
34317;SDS011;20582;52.196;20.952;2023-02-28T14:05:26;16.40;;;11.70;;
34317;SDS011;20582;52.196;20.952;2023-02-28T14:07:56;20.63;;;12.13;;
34317;SDS011;20582;52.196;20.952;2023-02-28T14:12:58;17.40;;;12.23;;
34317;SDS011;20582;52.196;20.952;2023-02-28T14:17:56;20.80;;;11.10;;
34317;SDS011;20582;52.196;20.952;2023-02-28T14:20:25;19.27;;;11.93;;
34317;SDS011;20582;52.196;20.952;2023-02-28T14:25:21;20.17;;;12.27;;
34317;SDS011;20582;52.196;20.952;2023-02-28T14:30:27;18.52;;;11.95;;
34317;SDS011;20582;52.196;20.952;2023-02-28T14:35:46;20.33;;;10.77;;
34317;SDS011;20582;52.196;20.952;2023-02-28T14:38:36;19.63;;;11.05;;
34317;SDS011;20582;52.196;20.952;2023-02-28T14:41:04;20.55;;;10.68;;
34317;SDS011;20582;52.196;20.952;2023-02-28T14:43:32;16.30;;;10.82;;
34317;SDS011;20582;52.196;20.952;2023-02-28T14:45:59;20.65;;;10.25;;
34317;SDS011;20582;52.196;20.952;2023-02-28T14:48:25;16.98;;;10.15;;
34317;SDS011;20582;52.196;20.952;2023-02-28T14:50:58;19.95;;;10.27;;
34317;SDS011;20582;52.196;20.952;2023-02-28T14:53:26;19.02;;;10.45;;
34317;SDS011;20582;52.196;20.952;2023-02-28T14:55:52;15.55;;;9.77;;
34317;SDS011;20582;52.196;20.952;2023-02-28T14:58:36;18.42;;;10.07;;
34317;SDS011;20582;52.196;20.952;2023-02-28T15:01:03;17.92;;;9.77;;
34317;SDS011;20582;52.196;20.952;2023-02-28T15:05:56;18.50;;;10.32;;
34317;SDS011;20582;52.196;20.952;2023-02-28T15:08:22;19.45;;;10.13;;
34317;SDS011;20582;52.196;20.952;2023-02-28T15:10:52;18.13;;;10.32;;
34317;SDS011;20582;52.196;20.952;2023-02-28T15:13:19;18.80;;;10.23;;
34317;SDS011;20582;52.196;20.952;2023-02-28T15:18:36;17.83;;;10.10;;
34317;SDS011;20582;52.196;20.952;2023-02-28T15:21:06;20.95;;;10.25;;
34317;SDS011;20582;52.196;20.952;2023-02-28T15:23:32;21.63;;;11.13;;
34317;SDS011;20582;52.196;20.952;2023-02-28T15:26:00;18.85;;;10.05;;
34317;SDS011;20582;52.196;20.952;2023-02-28T15:28:26;21.50;;;11.20;;
34317;SDS011;20582;52.196;20.952;2023-02-28T15:30:57;19.75;;;11.20;;
34317;SDS011;20582;52.196;20.952;2023-02-28T15:33:25;21.20;;;11.38;;
34317;SDS011;20582;52.196;20.952;2023-02-28T15:35:51;20.58;;;11.52;;
34317;SDS011;20582;52.196;20.952;2023-02-28T15:38:28;23.60;;;10.88;;
34317;SDS011;20582;52.196;20.952;2023-02-28T15:40:55;22.65;;;11.48;;
34317;SDS011;20582;52.196;20.952;2023-02-28T15:43:26;21.55;;;10.50;;
34317;SDS011;20582;52.196;20.952;2023-02-28T15:48:22;22.60;;;11.57;;
34317;SDS011;20582;52.196;20.952;2023-02-28T15:50:49;22.10;;;10.43;;
34317;SDS011;20582;52.196;20.952;2023-02-28T15:53:17;21.77;;;11.00;;
34317;SDS011;20582;52.196;20.952;2023-02-28T15:55:44;23.30;;;11.05;;
34317;SDS011;20582;52.196;20.952;2023-02-28T15:58:11;23.60;;;10.77;;
34317;SDS011;20582;52.196;20.952;2023-02-28T16:00:38;27.27;;;11.98;;
34317;SDS011;20582;52.196;20.952;2023-02-28T16:03:23;23.50;;;12.30;;
34317;SDS011;20582;52.196;20.952;2023-02-28T16:06:07;26.10;;;12.32;;
34317;SDS011;20582;52.196;20.952;2023-02-28T16:08:33;22.52;;;12.00;;
34317;SDS011;20582;52.196;20.952;2023-02-28T16:10:59;24.73;;;11.73;;
34317;SDS011;20582;52.196;20.952;2023-02-28T16:13:25;23.90;;;12.00;;
34317;SDS011;20582;52.196;20.952;2023-02-28T16:15:51;23.00;;;11.90;;
34317;SDS011;20582;52.196;20.952;2023-02-28T16:18:17;22.23;;;12.30;;
34317;SDS011;20582;52.196;20.952;2023-02-28T16:20:43;25.48;;;12.18;;
34317;SDS011;20582;52.196;20.952;2023-02-28T16:23:09;25.33;;;12.30;;
34317;SDS011;20582;52.196;20.952;2023-02-28T16:25:39;23.60;;;12.00;;
34317;SDS011;20582;52.196;20.952;2023-02-28T16:28:19;28.38;;;13.05;;
34317;SDS011;20582;52.196;20.952;2023-02-28T16:30:46;24.80;;;12.80;;
34317;SDS011;20582;52.196;20.952;2023-02-28T16:33:12;26.45;;;13.77;;
34317;SDS011;20582;52.196;20.952;2023-02-28T16:35:38;34.28;;;14.40;;
34317;SDS011;20582;52.196;20.952;2023-02-28T16:38:04;24.50;;;13.50;;
34317;SDS011;20582;52.196;20.952;2023-02-28T16:40:30;29.60;;;14.38;;
34317;SDS011;20582;52.196;20.952;2023-02-28T16:42:59;27.15;;;13.52;;
34317;SDS011;20582;52.196;20.952;2023-02-28T16:45:26;30.17;;;14.43;;